Time;durP1;ratioP1;P1;durP2;ratioP2;P2;SDS_P1;SDS_P2;PMS_P1;PMS_P2;Temp;Humidity;BMP_temperature;BMP_pressure;BME280_temperature;BME280_humidity;BME280_pressure;Samples;Min_cycle;Max_cycle;Signal;HPM_P1;HPM_P2
2023/05/09 00:01:11;;;;;;;1.92;1.63;;;;;;;;;;4953858;28;20039;-73
2023/05/09 00:03:37;;;;;;;2.08;1.88;;;;;;;;;;4953859;28;20026;-74
2023/05/09 00:06:04;;;;;;;7.25;1.70;;;;;;;;;;4954333;28;20055;-75
2023/05/09 00:08:30;;;;;;;4.95;2.08;;;;;;;;;;4956249;28;20102;-73
2023/05/09 00:10:56;;;;;;;2.63;2.15;;;;;;;;;;4953765;28;20114;-73
2023/05/09 00:13:23;;;;;;;1.95;1.77;;;;;;;;;;4954210;28;20078;-73
2023/05/09 00:15:49;;;;;;;2.63;2.38;;;;;;;;;;4952653;28;20050;-72
2023/05/09 00:18:16;;;;;;;1.67;1.58;;;;;;;;;;4952698;28;20054;-73
2023/05/09 00:20:43;;;;;;;1.55;1.45;;;;;;;;;;4954765;28;20035;-73
2023/05/09 00:23:09;;;;;;;5.72;2.38;;;;;;;;;;4954780;28;20030;-73
2023/05/09 00:25:35;;;;;;;1.98;1.60;;;;;;;;;;4955987;28;20049;-72
2023/05/09 00:28:01;;;;;;;1.98;1.83;;;;;;;;;;4952699;28;20483;-72
2023/05/09 00:30:27;;;;;;;6.03;1.58;;;;;;;;;;4952547;28;20034;-73
2023/05/09 00:32:53;;;;;;;3.92;2.22;;;;;;;;;;4952248;28;20023;-72
2023/05/09 00:35:19;;;;;;;1.95;1.60;;;;;;;;;;4950042;28;20031;-73
2023/05/09 00:37:45;;;;;;;1.65;1.55;;;;;;;;;;4949626;28;20357;-73
2023/05/09 00:40:11;;;;;;;1.75;1.65;;;;;;;;;;4951497;28;20045;-74
2023/05/09 00:42:37;;;;;;;2.75;1.45;;;;;;;;;;4953009;28;20144;-74
2023/05/09 00:45:03;;;;;;;4.30;1.95;;;;;;;;;;4951275;28;20502;-74
2023/05/09 00:47:29;;;;;;;2.42;2.22;;;;;;;;;;4953535;28;20062;-75
2023/05/09 00:49:56;;;;;;;5.28;2.13;;;;;;;;;;4953662;28;20391;-73
2023/05/09 00:52:24;;;;;;;3.17;1.92;;;;;;;;;;4953949;28;20025;-73
2023/05/09 00:54:51;;;;;;;2.10;1.90;;;;;;;;;;4951929;28;20026;-73
2023/05/09 00:57:17;;;;;;;1.95;1.77;;;;;;;;;;4953533;28;20050;-74
2023/05/09 00:59:43;;;;;;;2.30;1.85;;;;;;;;;;4953806;28;20027;-74
2023/05/09 01:02:10;;;;;;;2.40;2.20;;;;;;;;;;4953748;28;20015;-73
2023/05/09 01:04:36;;;;;;;2.00;1.80;;;;;;;;;;4953743;28;20227;-73
2023/05/09 01:07:06;;;;;;;1.70;1.60;;;;;;;;;;4953800;28;20028;-73
2023/05/09 01:09:43;;;;;;;1.77;1.67;;;;;;;;;;4953217;28;20077;-74
2023/05/09 01:12:24;;;;;;;1.77;1.67;;;;;;;;;;4953546;28;20544;-74
2023/05/09 01:15:03;;;;;;;7.30;2.85;;;;;;;;;;4953619;28;20114;-74
2023/05/09 01:17:38;;;;;;;2.55;1.85;;;;;;;;;;4953897;28;20031;-74
2023/05/09 01:20:04;;;;;;;2.08;1.40;;;;;;;;;;4952061;28;20047;-74
2023/05/09 01:22:35;;;;;;;1.83;1.55;;;;;;;;;;4953400;28;20090;-73
2023/05/09 01:25:06;;;;;;;2.60;1.42;;;;;;;;;;4952150;28;20473;-74
2023/05/09 01:27:50;;;;;;;1.63;1.52;;;;;;;;;;4953398;28;20550;-74
2023/05/09 01:30:16;;;;;;;1.70;1.60;;;;;;;;;;4953383;28;20027;-74
2023/05/09 01:32:43;;;;;;;1.48;1.38;;;;;;;;;;4952079;28;20130;-73
2023/05/09 01:35:11;;;;;;;1.42;1.25;;;;;;;;;;4953179;28;20019;-73
2023/05/09 01:37:39;;;;;;;2.33;2.13;;;;;;;;;;4951688;28;20031;-73
2023/05/09 01:40:15;;;;;;;4.35;1.48;;;;;;;;;;4952681;28;20385;-74
2023/05/09 01:42:47;;;;;;;10.23;2.65;;;;;;;;;;4953394;28;20023;-75
2023/05/09 01:45:13;;;;;;;2.25;1.52;;;;;;;;;;4951305;28;20023;-73
2023/05/09 01:47:40;;;;;;;1.50;1.40;;;;;;;;;;4953343;28;20109;-74
2023/05/09 01:50:06;;;;;;;2.65;2.40;;;;;;;;;;4953216;28;20130;-74
2023/05/09 01:52:32;;;;;;;1.83;1.73;;;;;;;;;;4953363;28;20031;-74
2023/05/09 01:55:00;;;;;;;4.80;1.67;;;;;;;;;;4952407;28;20031;-73
2023/05/09 01:57:27;;;;;;;2.10;1.63;;;;;;;;;;4953029;28;20744;-74
2023/05/09 01:59:54;;;;;;;3.67;1.95;;;;;;;;;;4951453;28;20114;-74
2023/05/09 02:02:20;;;;;;;5.57;2.08;;;;;;;;;;4952377;28;20457;-73
2023/05/09 02:04:47;;;;;;;3.58;2.13;;;;;;;;;;4949651;28;20027;-74
2023/05/09 02:07:13;;;;;;;2.15;1.92;;;;;;;;;;4951089;28;20490;-74
2023/05/09 02:09:40;;;;;;;3.15;2.58;;;;;;;;;;4950648;28;20509;-74
2023/05/09 02:12:06;;;;;;;2.60;2.40;;;;;;;;;;4951085;28;20062;-74
2023/05/09 02:14:32;;;;;;;2.22;1.85;;;;;;;;;;4949642;28;20430;-74
2023/05/09 02:17:05;;;;;;;1.83;1.70;;;;;;;;;;4950816;28;20038;-74
2023/05/09 02:19:31;;;;;;;1.98;1.80;;;;;;;;;;4951675;28;20023;-74
2023/05/09 02:21:57;;;;;;;2.25;2.03;;;;;;;;;;4950880;28;20418;-73
2023/05/09 02:24:24;;;;;;;2.15;1.95;;;;;;;;;;4950332;28;20210;-74
2023/05/09 02:26:50;;;;;;;1.80;1.70;;;;;;;;;;4950654;28;20384;-74
2023/05/09 02:29:19;;;;;;;3.63;2.10;;;;;;;;;;4950390;28;20495;-74
2023/05/09 02:31:46;;;;;;;2.70;2.25;;;;;;;;;;4950359;28;20054;-74
2023/05/09 02:34:13;;;;;;;1.65;1.55;;;;;;;;;;4951075;28;20330;-74
2023/05/09 02:36:40;;;;;;;2.33;2.03;;;;;;;;;;4950998;28;20054;-74
2023/05/09 02:39:06;;;;;;;5.15;2.20;;;;;;;;;;4951903;28;20283;-74
2023/05/09 02:41:32;;;;;;;1.88;1.60;;;;;;;;;;4952307;28;20515;-74
2023/05/09 02:43:58;;;;;;;4.65;1.27;;;;;;;;;;4952029;28;20031;-74
2023/05/09 02:46:25;;;;;;;2.28;1.65;;;;;;;;;;4951874;28;20031;-74
2023/05/09 02:48:51;;;;;;;1.50;1.40;;;;;;;;;;4951680;28;20031;-73
2023/05/09 02:51:17;;;;;;;1.98;1.88;;;;;;;;;;4950667;28;20027;-73
2023/05/09 02:53:43;;;;;;;2.47;2.15;;;;;;;;;;4950579;28;20030;-74
2023/05/09 02:56:09;;;;;;;2.65;1.83;;;;;;;;;;4949753;28;20096;-74
2023/05/09 02:58:35;;;;;;;1.85;1.75;;;;;;;;;;4951807;28;20035;-74
2023/05/09 03:01:01;;;;;;;1.60;1.50;;;;;;;;;;4950312;28;20032;-74
2023/05/09 03:03:27;;;;;;;2.22;2.00;;;;;;;;;;4951733;28;20038;-74
2023/05/09 03:05:53;;;;;;;1.63;1.52;;;;;;;;;;4950328;28;20521;-74
2023/05/09 03:08:19;;;;;;;2.22;1.80;;;;;;;;;;4951733;28;20027;-74
2023/05/09 03:10:46;;;;;;;3.10;2.03;;;;;;;;;;4951444;28;20059;-74
2023/05/09 03:13:12;;;;;;;1.98;1.88;;;;;;;;;;4951704;28;20103;-74
2023/05/09 03:15:38;;;;;;;1.60;1.50;;;;;;;;;;4951679;28;20055;-74
2023/05/09 03:18:04;;;;;;;1.38;1.27;;;;;;;;;;4951721;28;20054;-74
2023/05/09 03:20:30;;;;;;;1.35;1.25;;;;;;;;;;4951536;28;20039;-74
2023/05/09 03:22:56;;;;;;;2.53;1.88;;;;;;;;;;4951779;28;20031;-74
2023/05/09 03:25:23;;;;;;;1.63;1.52;;;;;;;;;;4951065;28;20066;-74
2023/05/09 03:27:49;;;;;;;3.80;2.10;;;;;;;;;;4951350;28;20019;-74
2023/05/09 03:30:15;;;;;;;1.80;1.70;;;;;;;;;;4951577;28;20050;-74
2023/05/09 03:32:41;;;;;;;2.30;2.08;;;;;;;;;;4951457;28;20034;-74
2023/05/09 03:35:07;;;;;;;2.15;1.95;;;;;;;;;;4951436;28;20031;-74
2023/05/09 03:37:33;;;;;;;1.30;1.30;;;;;;;;;;4951719;28;20499;-74
2023/05/09 03:39:59;;;;;;;2.22;2.03;;;;;;;;;;4951194;28;20028;-74
2023/05/09 03:42:25;;;;;;;1.92;1.67;;;;;;;;;;4951363;28;20034;-73
2023/05/09 03:44:51;;;;;;;2.50;1.70;;;;;;;;;;4949879;28;20038;-74
2023/05/09 03:47:17;;;;;;;4.72;1.98;;;;;;;;;;4949939;28;20404;-74
2023/05/09 03:49:43;;;;;;;2.78;1.77;;;;;;;;;;4949989;28;20472;-74
2023/05/09 03:52:09;;;;;;;2.05;1.63;;;;;;;;;;4951415;28;20107;-74
2023/05/09 03:54:35;;;;;;;4.28;2.10;;;;;;;;;;4951062;28;20099;-74
2023/05/09 03:57:02;;;;;;;11.23;2.40;;;;;;;;;;4949809;28;20138;-74
2023/05/09 03:59:28;;;;;;;2.80;2.60;;;;;;;;;;4949960;28;20488;-74
2023/05/09 04:01:54;;;;;;;2.85;2.55;;;;;;;;;;4951496;28;20045;-74
2023/05/09 04:04:20;;;;;;;2.28;2.13;;;;;;;;;;4949793;28;20019;-74
2023/05/09 04:06:46;;;;;;;2.92;1.85;;;;;;;;;;4951060;28;20027;-74
2023/05/09 04:09:12;;;;;;;2.10;1.98;;;;;;;;;;4950781;28;20066;-74
2023/05/09 04:11:38;;;;;;;2.05;1.95;;;;;;;;;;4954781;28;20036;-74
2023/05/09 04:14:05;;;;;;;2.33;2.13;;;;;;;;;;4954614;28;20122;-74
2023/05/09 04:16:32;;;;;;;2.28;2.08;;;;;;;;;;4954987;28;20033;-75
2023/05/09 04:18:58;;;;;;;3.55;2.08;;;;;;;;;;4953361;28;20082;-74
2023/05/09 04:21:24;;;;;;;2.92;2.13;;;;;;;;;;4954695;28;20101;-74
2023/05/09 04:23:50;;;;;;;2.17;1.98;;;;;;;;;;4954549;28;20023;-74
2023/05/09 04:26:17;;;;;;;2.97;2.67;;;;;;;;;;4954617;28;20051;-74
2023/05/09 04:28:43;;;;;;;2.35;2.10;;;;;;;;;;4954771;28;20019;-74
2023/05/09 04:31:11;;;;;;;2.10;1.90;;;;;;;;;;4954565;28;20106;-75
2023/05/09 04:33:37;;;;;;;2.22;1.98;;;;;;;;;;4953262;28;20397;-74
2023/05/09 04:36:04;;;;;;;2.22;2.03;;;;;;;;;;4954740;28;20038;-74
2023/05/09 04:38:30;;;;;;;2.30;2.10;;;;;;;;;;4954282;28;20055;-74
2023/05/09 04:40:57;;;;;;;2.63;2.35;;;;;;;;;;4952452;28;20455;-74
2023/05/09 04:43:26;;;;;;;2.60;2.40;;;;;;;;;;4954366;28;20030;-74
2023/05/09 04:45:52;;;;;;;2.95;2.75;;;;;;;;;;4954170;28;20127;-74
2023/05/09 04:48:18;;;;;;;2.22;2.13;;;;;;;;;;4954077;28;20573;-74
2023/05/09 04:50:47;;;;;;;2.55;2.35;;;;;;;;;;4954584;28;20135;-74
2023/05/09 04:53:13;;;;;;;3.10;2.40;;;;;;;;;;4954180;28;20452;-74
2023/05/09 04:55:39;;;;;;;2.50;2.30;;;;;;;;;;4953688;28;20532;-74
2023/05/09 04:58:05;;;;;;;2.80;2.10;;;;;;;;;;4953894;28;20476;-74
2023/05/09 05:00:31;;;;;;;6.90;2.50;;;;;;;;;;4953791;28;20597;-74
2023/05/09 05:02:57;;;;;;;2.67;2.45;;;;;;;;;;4954038;28;20027;-74
2023/05/09 05:05:23;;;;;;;2.30;2.10;;;;;;;;;;4951956;28;20041;-74
2023/05/09 05:07:49;;;;;;;2.45;2.25;;;;;;;;;;4953955;28;20027;-74
2023/05/09 05:10:15;;;;;;;2.35;2.15;;;;;;;;;;4953633;28;20031;-74
2023/05/09 05:12:41;;;;;;;3.30;2.60;;;;;;;;;;4953886;28;20023;-74
2023/05/09 05:15:10;;;;;;;2.45;2.08;;;;;;;;;;4952246;28;20031;-74
2023/05/09 05:17:36;;;;;;;2.58;2.38;;;;;;;;;;4953624;28;20567;-74
2023/05/09 05:20:05;;;;;;;2.42;2.20;;;;;;;;;;4951640;28;20054;-74
2023/05/09 05:22:31;;;;;;;2.50;2.30;;;;;;;;;;4953489;28;20480;-75
2023/05/09 05:24:57;;;;;;;2.47;2.28;;;;;;;;;;4952973;28;20387;-74
2023/05/09 05:27:23;;;;;;;2.30;2.20;;;;;;;;;;4953704;28;20486;-74
2023/05/09 05:29:49;;;;;;;2.55;1.85;;;;;;;;;;4953435;28;20087;-74
2023/05/09 05:32:15;;;;;;;1.98;1.77;;;;;;;;;;4953188;28;20448;-74
2023/05/09 05:34:41;;;;;;;2.00;1.90;;;;;;;;;;4952932;28;20039;-74
2023/05/09 05:37:07;;;;;;;2.00;1.90;;;;;;;;;;4952755;28;20036;-73
2023/05/09 05:39:33;;;;;;;4.95;2.08;;;;;;;;;;4952189;28;20023;-73
2023/05/09 05:41:59;;;;;;;2.25;2.05;;;;;;;;;;4935001;29;20039;-75
2023/05/09 05:44:25;;;;;;;5.20;1.88;;;;;;;;;;4934158;29;20028;-73
2023/05/09 05:46:51;;;;;;;3.13;1.95;;;;;;;;;;4947430;28;20431;-74
2023/05/09 05:49:17;;;;;;;1.83;1.60;;;;;;;;;;4951168;28;20026;-77
2023/05/09 05:51:43;;;;;;;2.55;2.15;;;;;;;;;;4952833;28;20058;-75
2023/05/09 05:54:09;;;;;;;1.80;1.70;;;;;;;;;;4959813;28;20023;-73
2023/05/09 05:56:35;;;;;;;1.73;1.50;;;;;;;;;;4954997;28;20591;-76
2023/05/09 05:59:02;;;;;;;1.88;1.77;;;;;;;;;;4950667;28;20146;-74
2023/05/09 06:01:27;;;;;;;2.00;1.90;;;;;;;;;;4961824;28;20034;-74
2023/05/09 06:03:54;;;;;;;2.10;1.58;;;;;;;;;;4961855;28;20016;-74
2023/05/09 06:06:23;;;;;;;5.05;2.33;;;;;;;;;;4959486;28;20022;-74
2023/05/09 06:08:49;;;;;;;1.83;1.70;;;;;;;;;;4945786;29;20023;-73
2023/05/09 06:11:16;;;;;;;6.43;2.75;;;;;;;;;;4948074;28;20082;-74
2023/05/09 06:13:42;;;;;;;2.78;2.22;;;;;;;;;;4950279;28;20144;-75
2023/05/09 06:16:08;;;;;;;8.48;4.15;;;;;;;;;;4958127;28;20019;-76
2023/05/09 06:18:38;;;;;;;6.10;3.15;;;;;;;;;;4958818;28;20033;-74
2023/05/09 06:21:05;;;;;;;1.50;1.40;;;;;;;;;;4956536;28;20031;-74
2023/05/09 06:23:31;;;;;;;2.30;1.55;;;;;;;;;;4960942;28;20204;-74
2023/05/09 06:25:57;;;;;;;2.00;1.80;;;;;;;;;;4960645;28;20078;-74
2023/05/09 06:28:23;;;;;;;1.55;1.45;;;;;;;;;;4960623;28;20019;-73
2023/05/09 06:30:49;;;;;;;1.42;1.25;;;;;;;;;;4958120;28;20082;-73
2023/05/09 06:33:15;;;;;;;4.95;1.42;;;;;;;;;;4955231;28;20015;-74
2023/05/09 06:35:41;;;;;;;2.30;1.65;;;;;;;;;;4942304;29;20024;-72
2023/05/09 06:38:07;;;;;;;1.58;1.48;;;;;;;;;;4946782;29;20035;-74
2023/05/09 06:40:33;;;;;;;1.50;1.40;;;;;;;;;;4961418;28;20331;-74
2023/05/09 06:42:59;;;;;;;1.95;1.52;;;;;;;;;;4962229;28;20062;-75
2023/05/09 06:45:26;;;;;;;2.22;2.03;;;;;;;;;;4962422;28;20035;-76
2023/05/09 06:47:52;;;;;;;1.40;1.30;;;;;;;;;;4962315;28;20199;-76
2023/05/09 06:50:18;;;;;;;1.90;1.80;;;;;;;;;;4962382;28;20042;-76
2023/05/09 06:52:44;;;;;;;1.85;1.75;;;;;;;;;;4962129;28;20331;-75
2023/05/09 06:55:10;;;;;;;4.05;1.77;;;;;;;;;;4961641;28;20031;-74
2023/05/09 06:57:36;;;;;;;1.38;1.27;;;;;;;;;;4961991;28;20049;-75
2023/05/09 07:00:03;;;;;;;3.15;1.33;;;;;;;;;;4961415;28;20035;-74
2023/05/09 07:02:30;;;;;;;4.13;1.60;;;;;;;;;;4960779;28;20027;-74
2023/05/09 07:04:56;;;;;;;1.98;1.35;;;;;;;;;;4961139;28;20086;-75
2023/05/09 07:07:22;;;;;;;3.17;1.50;;;;;;;;;;4959423;28;20219;-75
2023/05/09 07:09:48;;;;;;;1.30;1.13;;;;;;;;;;4960949;28;20043;-75
2023/05/09 07:12:14;;;;;;;2.30;1.45;;;;;;;;;;4959860;28;20034;-75
2023/05/09 07:14:40;;;;;;;1.38;1.27;;;;;;;;;;4960353;28;20074;-75
2023/05/09 07:17:07;;;;;;;1.63;1.52;;;;;;;;;;4960751;28;20019;-75
2023/05/09 07:19:33;;;;;;;1.70;1.60;;;;;;;;;;4961137;28;20018;-73
2023/05/09 07:22:00;;;;;;;7.18;1.33;;;;;;;;;;4961783;28;20050;-74
2023/05/09 07:24:25;;;;;;;1.40;1.30;;;;;;;;;;4959631;28;20314;-74
2023/05/09 07:26:52;;;;;;;0.70;0.68;;;;;;;;;;4958540;28;20050;-75
2023/05/09 07:29:19;;;;;;;1.65;1.17;;;;;;;;;;4958278;28;20341;-77
2023/05/09 07:31:45;;;;;;;1.10;1.10;;;;;;;;;;4959393;28;20070;-73
2023/05/09 07:34:11;;;;;;;1.80;0.90;;;;;;;;;;4957280;29;20594;-74
2023/05/09 07:36:37;;;;;;;1.52;1.30;;;;;;;;;;4956462;28;20386;-74
2023/05/09 07:39:03;;;;;;;1.00;0.90;;;;;;;;;;4956501;28;20246;-73
2023/05/09 07:41:30;;;;;;;3.53;0.90;;;;;;;;;;4948741;28;20031;-73
2023/05/09 07:43:56;;;;;;;2.22;1.23;;;;;;;;;;4954610;28;20330;-74
2023/05/09 07:46:22;;;;;;;1.20;1.20;;;;;;;;;;4949839;28;20045;-74
2023/05/09 07:48:48;;;;;;;1.25;1.20;;;;;;;;;;4957412;28;20243;-73
2023/05/09 07:51:14;;;;;;;1.40;1.00;;;;;;;;;;4963086;28;20030;-73
2023/05/09 07:53:40;;;;;;;1.13;1.13;;;;;;;;;;4961777;28;20027;-75
2023/05/09 07:56:06;;;;;;;1.20;1.10;;;;;;;;;;4956876;28;20193;-74
2023/05/09 07:58:32;;;;;;;1.02;1.02;;;;;;;;;;4962255;28;20091;-74
2023/05/09 08:00:59;;;;;;;2.65;1.75;;;;;;;;;;4962526;28;20326;-76
2023/05/09 08:03:25;;;;;;;5.68;1.25;;;;;;;;;;4961281;28;20015;-74
2023/05/09 08:05:55;;;;;;;0.98;0.90;;;;;;;;;;4962408;28;20035;-73
2023/05/09 08:08:21;;;;;;;1.38;1.27;;;;;;;;;;4962693;28;20050;-74
2023/05/09 08:10:47;;;;;;;1.20;1.20;;;;;;;;;;4961683;28;20015;-75
2023/05/09 08:13:13;;;;;;;1.00;1.00;;;;;;;;;;4961436;28;20032;-74
2023/05/09 08:15:39;;;;;;;0.90;0.90;;;;;;;;;;4959774;28;20299;-74
2023/05/09 08:18:05;;;;;;;1.05;1.00;;;;;;;;;;4960720;28;20035;-74
2023/05/09 08:20:33;;;;;;;1.15;1.10;;;;;;;;;;4961380;28;20050;-74
2023/05/09 08:22:59;;;;;;;1.75;1.00;;;;;;;;;;4959883;28;20027;-73
2023/05/09 08:25:25;;;;;;;2.15;0.90;;;;;;;;;;4959584;28;20027;-74
2023/05/09 08:27:51;;;;;;;5.05;1.10;;;;;;;;;;4951954;28;20567;-74
2023/05/09 08:30:17;;;;;;;1.35;1.25;;;;;;;;;;4950412;28;20034;-74
2023/05/09 08:32:43;;;;;;;1.10;1.00;;;;;;;;;;4949904;28;20078;-74
2023/05/09 08:35:09;;;;;;;1.27;0.93;;;;;;;;;;4950566;28;20571;-74
2023/05/09 08:37:36;;;;;;;2.20;1.38;;;;;;;;;;4949172;28;20094;-74
2023/05/09 08:40:04;;;;;;;1.83;1.00;;;;;;;;;;4948297;28;20031;-75
2023/05/09 08:42:31;;;;;;;1.00;1.00;;;;;;;;;;4949838;28;20080;-75
2023/05/09 08:44:58;;;;;;;1.63;1.23;;;;;;;;;;4951088;28;20480;-75
2023/05/09 08:47:24;;;;;;;5.55;1.08;;;;;;;;;;4949315;28;20098;-75
2023/05/09 08:49:50;;;;;;;1.10;0.98;;;;;;;;;;4948813;28;20132;-75
2023/05/09 08:52:17;;;;;;;1.33;0.80;;;;;;;;;;4946864;28;20027;-74
2023/05/09 08:54:43;;;;;;;1.30;1.20;;;;;;;;;;4945715;28;20516;-75
2023/05/09 08:57:09;;;;;;;1.45;1.30;;;;;;;;;;4947610;28;20067;-75
2023/05/09 08:59:37;;;;;;;2.70;1.55;;;;;;;;;;4949855;28;20043;-75
2023/05/09 09:02:06;;;;;;;0.90;0.90;;;;;;;;;;4948821;28;20238;-75
2023/05/09 09:04:32;;;;;;;1.20;1.10;;;;;;;;;;4949373;28;20135;-74
2023/05/09 09:06:59;;;;;;;1.10;1.00;;;;;;;;;;4949197;28;20493;-74
2023/05/09 09:09:26;;;;;;;0.90;0.90;;;;;;;;;;4948709;28;20046;-76
2023/05/09 09:11:52;;;;;;;1.70;1.10;;;;;;;;;;4949335;28;20476;-75
2023/05/09 09:14:22;;;;;;;2.58;1.40;;;;;;;;;;4949089;28;20042;-76
2023/05/09 09:16:48;;;;;;;0.70;0.70;;;;;;;;;;4948076;28;20499;-74
2023/05/09 09:19:16;;;;;;;3.25;1.13;;;;;;;;;;4949537;28;20110;-76
2023/05/09 09:21:45;;;;;;;2.72;1.30;;;;;;;;;;4949315;28;20526;-75
2023/05/09 09:24:17;;;;;;;2.22;1.50;;;;;;;;;;4947721;28;20028;-75
2023/05/09 09:26:47;;;;;;;1.33;1.23;;;;;;;;;;4948356;28;20023;-75
2023/05/09 09:29:13;;;;;;;1.10;1.10;;;;;;;;;;4949452;28;20488;-75
2023/05/09 09:31:43;;;;;;;1.45;1.20;;;;;;;;;;4949268;28;20046;-75
2023/05/09 09:34:09;;;;;;;1.20;1.10;;;;;;;;;;4949657;28;20024;-75
2023/05/09 09:36:35;;;;;;;1.98;1.20;;;;;;;;;;4949498;28;20045;-74
2023/05/09 09:39:05;;;;;;;1.10;1.10;;;;;;;;;;4949125;28;20074;-76
2023/05/09 09:41:37;;;;;;;3.67;1.33;;;;;;;;;;4951355;28;20035;-75
2023/05/09 09:44:07;;;;;;;4.57;0.82;;;;;;;;;;4951405;28;20488;-75
2023/05/09 09:46:43;;;;;;;1.10;1.10;;;;;;;;;;4949483;28;20036;-75
2023/05/09 09:49:10;;;;;;;0.85;0.85;;;;;;;;;;4949189;28;20028;-74
2023/05/09 09:51:36;;;;;;;2.65;1.20;;;;;;;;;;4947580;28;20524;-74
2023/05/09 09:54:03;;;;;;;1.58;1.15;;;;;;;;;;4948662;28;20035;-74
2023/05/09 09:56:42;;;;;;;3.55;1.60;;;;;;;;;;4947423;28;20058;-75
2023/05/09 09:59:09;;;;;;;;;;;;;;;;;;4949218;28;20031;-77
2023/05/09 10:01:35;;;;;;;1.88;1.30;;;;;;;;;;4949184;28;20441;-75
2023/05/09 10:04:02;;;;;;;2.00;1.23;;;;;;;;;;4947869;28;20473;-73
2023/05/09 10:06:28;;;;;;;0.90;0.90;;;;;;;;;;4948182;28;20235;-74
2023/05/09 10:08:54;;;;;;;2.50;1.10;;;;;;;;;;4948552;28;20188;-75
2023/05/09 10:11:20;;;;;;;1.05;1.00;;;;;;;;;;4948893;28;20126;-73
2023/05/09 10:13:46;;;;;;;2.60;1.45;;;;;;;;;;4947224;28;20583;-76
2023/05/09 10:16:13;;;;;;;1.83;1.15;;;;;;;;;;4948492;28;20038;-74
2023/05/09 10:18:40;;;;;;;2.22;0.90;;;;;;;;;;4948846;28;20027;-74
2023/05/09 10:21:07;;;;;;;1.00;0.90;;;;;;;;;;4947848;28;20043;-75
2023/05/09 10:23:36;;;;;;;2.22;1.48;;;;;;;;;;4928708;29;20023;-75
2023/05/09 10:26:02;;;;;;;;;;;;;;;;;;4928508;29;20078;-75
2023/05/09 10:28:31;;;;;;;1.20;1.13;;;;;;;;;;4929279;29;20348;-76
2023/05/09 10:31:11;;;;;;;1.27;1.17;;;;;;;;;;4929354;29;20098;-76
2023/05/09 10:33:42;;;;;;;1.63;1.02;;;;;;;;;;4929092;29;20042;-74
2023/05/09 10:36:09;;;;;;;1.60;0.88;;;;;;;;;;4929122;29;20385;-75
2023/05/09 10:38:35;;;;;;;0.85;0.85;;;;;;;;;;4928636;29;20027;-76
2023/05/09 10:41:01;;;;;;;1.35;1.10;;;;;;;;;;4930057;29;20489;-75
2023/05/09 10:43:27;;;;;;;1.48;1.30;;;;;;;;;;4931137;29;20695;-74
2023/05/09 10:45:54;;;;;;;1.38;1.13;;;;;;;;;;4929444;29;20032;-75
2023/05/09 10:48:20;;;;;;;1.10;1.10;;;;;;;;;;4927622;29;20061;-73
2023/05/09 10:50:46;;;;;;;2.47;1.42;;;;;;;;;;4929424;29;20039;-74
2023/05/09 10:53:20;;;;;;;0.90;0.90;;;;;;;;;;4928650;29;20028;-74
2023/05/09 10:55:46;;;;;;;2.97;1.20;;;;;;;;;;4928798;29;20043;-74
2023/05/09 10:58:21;;;;;;;2.15;1.17;;;;;;;;;;4927296;29;20034;-75
2023/05/09 11:00:48;;;;;;;3.92;1.40;;;;;;;;;;4928522;29;20050;-74
2023/05/09 11:03:15;;;;;;;1.10;1.10;;;;;;;;;;4928431;29;20024;-74
2023/05/09 11:05:41;;;;;;;2.28;1.08;;;;;;;;;;4929492;29;20492;-75
2023/05/09 11:08:24;;;;;;;1.60;0.90;;;;;;;;;;4930573;29;20098;-74
2023/05/09 11:10:50;;;;;;;1.27;1.20;;;;;;;;;;4928574;29;20027;-75
2023/05/09 11:13:23;;;;;;;1.15;0.90;;;;;;;;;;4928592;29;20146;-76
2023/05/09 11:16:01;;;;;;;0.98;0.98;;;;;;;;;;4928205;29;20027;-75
2023/05/09 11:18:27;;;;;;;1.70;1.17;;;;;;;;;;4927580;29;20440;-75
2023/05/09 11:20:54;;;;;;;1.23;1.10;;;;;;;;;;4927855;29;20122;-75
2023/05/09 11:23:20;;;;;;;1.27;1.08;;;;;;;;;;4945991;29;20042;-77
2023/05/09 11:25:47;;;;;;;2.25;1.52;;;;;;;;;;4946974;28;20102;-76
2023/05/09 11:28:32;;;;;;;1.70;1.55;;;;;;;;;;4945581;28;20054;-76
2023/05/09 11:31:12;;;;;;;1.20;1.10;;;;;;;;;;4946793;28;20098;-77
2023/05/09 11:33:38;;;;;;;1.23;1.23;;;;;;;;;;4946718;28;20384;-76
2023/05/09 11:36:15;;;;;;;1.13;1.02;;;;;;;;;;4946796;28;20149;-74
2023/05/09 11:38:42;;;;;;;9.48;1.00;;;;;;;;;;4946451;28;20460;-74
2023/05/09 11:41:08;;;;;;;1.05;1.05;;;;;;;;;;4947121;28;20126;-75
2023/05/09 11:43:37;;;;;;;1.42;1.20;;;;;;;;;;4950001;28;20055;-74
2023/05/09 11:46:03;;;;;;;;;;;;;;;;;;4949669;28;20480;-74
2023/05/09 11:48:29;;;;;;;1.20;1.20;;;;;;;;;;4946051;28;19997;-74
2023/05/09 11:50:55;;;;;;;1.13;1.02;;;;;;;;;;4947585;28;20066;-75
2023/05/09 11:53:21;;;;;;;0.80;0.80;;;;;;;;;;4944817;28;20492;-75
2023/05/09 11:55:47;;;;;;;1.20;1.20;;;;;;;;;;4946738;28;20078;-75
2023/05/09 11:58:13;;;;;;;0.70;0.70;;;;;;;;;;4946779;28;20024;-75
2023/05/09 12:00:45;;;;;;;0.90;0.90;;;;;;;;;;4944917;28;20448;-74
2023/05/09 12:03:12;;;;;;;1.55;1.23;;;;;;;;;;4946849;28;20024;-74
2023/05/09 12:05:38;;;;;;;2.97;1.10;;;;;;;;;;4947547;28;20019;-74
2023/05/09 12:08:05;;;;;;;2.15;0.93;;;;;;;;;;4947129;28;20047;-74
2023/05/09 12:10:32;;;;;;;1.17;1.17;;;;;;;;;;4945424;28;20038;-74
2023/05/09 12:12:58;;;;;;;1.13;1.13;;;;;;;;;;4946156;28;20102;-75
2023/05/09 12:15:24;;;;;;;3.38;1.00;;;;;;;;;;4946820;28;20118;-74
2023/05/09 12:18:03;;;;;;;3.03;1.30;;;;;;;;;;4946631;28;20036;-77
2023/05/09 12:20:39;;;;;;;1.05;1.05;;;;;;;;;;4946988;28;20053;-77
2023/05/09 12:23:06;;;;;;;2.63;1.10;;;;;;;;;;4929674;28;20019;-74
2023/05/09 12:25:32;;;;;;;2.78;1.00;;;;;;;;;;4926282;29;20054;-75
2023/05/09 12:27:58;;;;;;;2.53;0.90;;;;;;;;;;4927079;29;20138;-74
2023/05/09 12:30:24;;;;;;;1.45;1.35;;;;;;;;;;4927166;29;20038;-77
2023/05/09 12:32:50;;;;;;;2.55;1.50;;;;;;;;;;4929368;29;20116;-74
2023/05/09 12:35:16;;;;;;;3.13;1.52;;;;;;;;;;4929182;29;20794;-74
2023/05/09 12:37:54;;;;;;;1.65;1.10;;;;;;;;;;4931331;29;20028;-75
2023/05/09 12:40:20;;;;;;;1.17;1.08;;;;;;;;;;4931263;29;20092;-75
2023/05/09 12:42:46;;;;;;;4.18;1.10;;;;;;;;;;4933210;29;20053;-77
2023/05/09 12:45:12;;;;;;;1.10;1.10;;;;;;;;;;4933158;29;20026;-76
2023/05/09 12:47:40;;;;;;;1.30;1.10;;;;;;;;;;4931879;29;20047;-75
2023/05/09 12:50:07;;;;;;;3.80;1.17;;;;;;;;;;4930587;29;20034;-75
2023/05/09 12:52:37;;;;;;;1.85;0.98;;;;;;;;;;4928857;29;20480;-76
2023/05/09 12:55:07;;;;;;;1.40;1.30;;;;;;;;;;4930357;29;20033;-75
2023/05/09 12:57:33;;;;;;;0.93;0.93;;;;;;;;;;4930693;29;20138;-77
2023/05/09 12:59:59;;;;;;;1.45;1.35;;;;;;;;;;4928990;29;20035;-75
2023/05/09 13:02:33;;;;;;;1.30;1.20;;;;;;;;;;4930151;29;20070;-77
2023/05/09 13:05:06;;;;;;;1.80;1.08;;;;;;;;;;4929676;29;20051;-77
2023/05/09 13:07:39;;;;;;;1.20;1.10;;;;;;;;;;4930487;29;20035;-75
2023/05/09 13:10:10;;;;;;;4.88;1.10;;;;;;;;;;4928408;29;20028;-75
2023/05/09 13:12:37;;;;;;;1.10;1.05;;;;;;;;;;4929892;29;20035;-75
2023/05/09 13:15:03;;;;;;;4.90;1.33;;;;;;;;;;4929761;29;20225;-74
2023/05/09 13:17:29;;;;;;;0.98;0.98;;;;;;;;;;4930012;29;20094;-73
2023/05/09 13:19:55;;;;;;;1.65;1.42;;;;;;;;;;4930529;29;20034;-75
2023/05/09 13:22:21;;;;;;;1.00;1.00;;;;;;;;;;4940692;29;20107;-74
2023/05/09 13:24:47;;;;;;;1.58;1.20;;;;;;;;;;4946987;28;20455;-73
2023/05/09 13:27:13;;;;;;;2.33;1.33;;;;;;;;;;4947193;28;20027;-74
2023/05/09 13:29:39;;;;;;;5.32;1.58;;;;;;;;;;4949120;28;20271;-74
2023/05/09 13:32:06;;;;;;;1.30;1.20;;;;;;;;;;4948290;28;20567;-74
2023/05/09 13:34:32;;;;;;;2.25;1.15;;;;;;;;;;4948993;28;20109;-75
2023/05/09 13:36:58;;;;;;;1.27;1.17;;;;;;;;;;4949043;28;20063;-74
2023/05/09 13:39:24;;;;;;;1.63;1.52;;;;;;;;;;4948214;28;20126;-75
2023/05/09 13:41:51;;;;;;;1.77;1.67;;;;;;;;;;4950805;28;20476;-75
2023/05/09 13:44:17;;;;;;;6.47;2.63;;;;;;;;;;4951454;28;20019;-75
2023/05/09 13:46:44;;;;;;;7.18;2.45;;;;;;;;;;4951127;28;20046;-76
2023/05/09 13:49:11;;;;;;;1.88;1.77;;;;;;;;;;4949299;28;20024;-76
2023/05/09 13:51:37;;;;;;;4.07;2.10;;;;;;;;;;4948034;28;20348;-76
2023/05/09 13:54:07;;;;;;;4.07;2.58;;;;;;;;;;4948777;28;20035;-75
2023/05/09 13:56:33;;;;;;;2.50;1.95;;;;;;;;;;4949077;28;20047;-77
2023/05/09 13:58:59;;;;;;;6.55;3.20;;;;;;;;;;4946516;28;20042;-76
2023/05/09 14:01:25;;;;;;;4.03;2.65;;;;;;;;;;4948273;28;20396;-76
2023/05/09 14:03:51;;;;;;;2.38;2.22;;;;;;;;;;4949803;28;20020;-76
2023/05/09 14:06:17;;;;;;;2.58;2.38;;;;;;;;;;4952946;28;20023;-76
2023/05/09 14:08:43;;;;;;;10.73;4.18;;;;;;;;;;4955742;28;20042;-76
2023/05/09 14:11:09;;;;;;;4.03;3.42;;;;;;;;;;4958980;28;20027;-76
2023/05/09 14:13:35;;;;;;;4.57;2.63;;;;;;;;;;4954300;28;20193;-76
2023/05/09 14:16:01;;;;;;;3.38;3.08;;;;;;;;;;4957467;28;20054;-76
2023/05/09 14:18:27;;;;;;;5.03;3.22;;;;;;;;;;4954153;28;20250;-77
2023/05/09 14:20:53;;;;;;;4.82;2.60;;;;;;;;;;4958833;28;20070;-77
2023/05/09 14:23:19;;;;;;;5.75;3.13;;;;;;;;;;4934677;28;20083;-77
2023/05/09 14:25:45;;;;;;;3.55;3.10;;;;;;;;;;4929255;29;20374;-77
2023/05/09 14:28:11;;;;;;;2.35;2.13;;;;;;;;;;4929640;29;20023;-76
2023/05/09 14:30:37;;;;;;;4.85;1.58;;;;;;;;;;4930118;29;20036;-76
2023/05/09 14:33:03;;;;;;;1.40;1.30;;;;;;;;;;4930576;29;20192;-76
2023/05/09 14:35:32;;;;;;;1.80;0.95;;;;;;;;;;4930130;29;20626;-76
2023/05/09 14:37:58;;;;;;;1.35;0.80;;;;;;;;;;4938736;28;20077;-77
2023/05/09 14:40:25;;;;;;;0.77;0.77;;;;;;;;;;4959779;28;20295;-76
2023/05/09 14:42:51;;;;;;;1.17;1.10;;;;;;;;;;4930235;29;20106;-76